sensor_id;sensor_type;location;lat;lon;timestamp;pressure;altitude;pressure_sealevel;temperature
70533;BMP180;58088;51.186;17.130;2023-06-22T00:00:57;100525.20;;;25.00
70533;BMP180;58088;51.186;17.130;2023-06-22T00:03:25;100521.40;;;25.00
70533;BMP180;58088;51.186;17.130;2023-06-22T00:05:51;100516.80;;;25.00
70533;BMP180;58088;51.186;17.130;2023-06-22T00:08:19;100525.20;;;24.90
70533;BMP180;58088;51.186;17.130;2023-06-22T00:10:46;100521.20;;;24.90
70533;BMP180;58088;51.186;17.130;2023-06-22T00:13:13;100525.40;;;24.90
70533;BMP180;58088;51.186;17.130;2023-06-22T00:15:41;100528.40;;;24.90
70533;BMP180;58088;51.186;17.130;2023-06-22T00:18:09;100524.00;;;24.98
70533;BMP180;58088;51.186;17.130;2023-06-22T00:20:37;100526.20;;;25.00
70533;BMP180;58088;51.186;17.130;2023-06-22T00:23:05;100531.40;;;25.00
70533;BMP180;58088;51.186;17.130;2023-06-22T00:25:36;100529.80;;;25.00
70533;BMP180;58088;51.186;17.130;2023-06-22T00:28:04;100530.20;;;25.00
70533;BMP180;58088;51.186;17.130;2023-06-22T00:30:31;100536.80;;;25.00
70533;BMP180;58088;51.186;17.130;2023-06-22T00:32:58;100538.60;;;24.92
70533;BMP180;58088;51.186;17.130;2023-06-22T00:35:26;100539.80;;;24.94
70533;BMP180;58088;51.186;17.130;2023-06-22T00:37:56;100553.60;;;25.00
70533;BMP180;58088;51.186;17.130;2023-06-22T00:40:32;100560.20;;;25.00
70533;BMP180;58088;51.186;17.130;2023-06-22T00:42:59;100557.40;;;25.00
70533;BMP180;58088;51.186;17.130;2023-06-22T00:45:26;100559.60;;;25.00
70533;BMP180;58088;51.186;17.130;2023-06-22T00:47:57;100564.40;;;24.90
70533;BMP180;58088;51.186;17.130;2023-06-22T00:50:27;100562.40;;;24.90
70533;BMP180;58088;51.186;17.130;2023-06-22T00:53:01;100561.40;;;24.80
70533;BMP180;58088;51.186;17.130;2023-06-22T00:55:42;100561.20;;;24.80
70533;BMP180;58088;51.186;17.130;2023-06-22T00:58:13;100567.20;;;24.80
70533;BMP180;58088;51.186;17.130;2023-06-22T01:00:42;100572.40;;;24.70
70533;BMP180;58088;51.186;17.130;2023-06-22T01:03:09;100577.00;;;24.70
70533;BMP180;58088;51.186;17.130;2023-06-22T01:05:38;100582.20;;;24.60
70533;BMP180;58088;51.186;17.130;2023-06-22T01:11:05;100579.60;;;24.34
70533;BMP180;58088;51.186;17.130;2023-06-22T01:13:57;100575.60;;;24.26
70533;BMP180;58088;51.186;17.130;2023-06-22T01:16:37;100577.00;;;24.20
70533;BMP180;58088;51.186;17.130;2023-06-22T01:19:47;100580.20;;;24.18
70533;BMP180;58088;51.186;17.130;2023-06-22T01:22:24;100581.20;;;24.00
70533;BMP180;58088;51.186;17.130;2023-06-22T01:25:09;100581.20;;;24.00
70533;BMP180;58088;51.186;17.130;2023-06-22T01:28:23;100592.20;;;24.00
70533;BMP180;58088;51.186;17.130;2023-06-22T01:30:51;100594.20;;;24.00
70533;BMP180;58088;51.186;17.130;2023-06-22T01:33:35;100596.20;;;24.00
70533;BMP180;58088;51.186;17.130;2023-06-22T01:36:04;100590.80;;;24.00
70533;BMP180;58088;51.186;17.130;2023-06-22T01:38:33;100582.00;;;24.00
70533;BMP180;58088;51.186;17.130;2023-06-22T01:41:01;100584.60;;;23.90
70533;BMP180;58088;51.186;17.130;2023-06-22T01:43:28;100577.60;;;23.90
70533;BMP180;58088;51.186;17.130;2023-06-22T01:45:59;100576.60;;;23.90
70533;BMP180;58088;51.186;17.130;2023-06-22T01:48:26;100587.20;;;23.92
70533;BMP180;58088;51.186;17.130;2023-06-22T01:50:54;100592.40;;;23.90
70533;BMP180;58088;51.186;17.130;2023-06-22T01:53:22;100585.80;;;23.90
70533;BMP180;58088;51.186;17.130;2023-06-22T01:55:51;100588.60;;;23.90
70533;BMP180;58088;51.186;17.130;2023-06-22T01:58:20;100590.60;;;23.80
70533;BMP180;58088;51.186;17.130;2023-06-22T02:01:13;100592.80;;;23.80
70533;BMP180;58088;51.186;17.130;2023-06-22T02:04:13;100590.00;;;23.80
70533;BMP180;58088;51.186;17.130;2023-06-22T02:06:44;100586.60;;;23.80
70533;BMP180;58088;51.186;17.130;2023-06-22T02:09:17;100588.40;;;23.80
70533;BMP180;58088;51.186;17.130;2023-06-22T02:11:46;100589.00;;;23.70
70533;BMP180;58088;51.186;17.130;2023-06-22T02:14:14;100589.00;;;23.60
70533;BMP180;58088;51.186;17.130;2023-06-22T02:16:42;100591.40;;;23.58
70533;BMP180;58088;51.186;17.130;2023-06-22T02:19:09;100589.80;;;23.50
70533;BMP180;58088;51.186;17.130;2023-06-22T02:21:35;100592.20;;;23.42
70533;BMP180;58088;51.186;17.130;2023-06-22T02:24:01;100593.00;;;23.40
70533;BMP180;58088;51.186;17.130;2023-06-22T02:26:30;100590.00;;;23.40
70533;BMP180;58088;51.186;17.130;2023-06-22T02:28:57;100599.20;;;23.40
70533;BMP180;58088;51.186;17.130;2023-06-22T02:31:23;100592.80;;;23.30
70533;BMP180;58088;51.186;17.130;2023-06-22T02:33:59;100590.00;;;23.30
70533;BMP180;58088;51.186;17.130;2023-06-22T02:36:26;100592.20;;;23.30
70533;BMP180;58088;51.186;17.130;2023-06-22T02:38:56;100590.80;;;23.30
70533;BMP180;58088;51.186;17.130;2023-06-22T02:41:27;100594.80;;;23.20
70533;BMP180;58088;51.186;17.130;2023-06-22T02:43:55;100594.80;;;23.20
70533;BMP180;58088;51.186;17.130;2023-06-22T02:46:22;100597.00;;;23.12
70533;BMP180;58088;51.186;17.130;2023-06-22T02:48:49;100598.20;;;23.10
70533;BMP180;58088;51.186;17.130;2023-06-22T02:51:15;100595.20;;;23.10
70533;BMP180;58088;51.186;17.130;2023-06-22T02:53:41;100597.20;;;23.18
70533;BMP180;58088;51.186;17.130;2023-06-22T02:56:11;100585.20;;;23.12
70533;BMP180;58088;51.186;17.130;2023-06-22T02:58:38;100591.00;;;23.20
70533;BMP180;58088;51.186;17.130;2023-06-22T03:01:07;100589.00;;;23.20
70533;BMP180;58088;51.186;17.130;2023-06-22T03:03:33;100583.20;;;23.20
70533;BMP180;58088;51.186;17.130;2023-06-22T03:05:59;100583.40;;;23.30
70533;BMP180;58088;51.186;17.130;2023-06-22T03:08:28;100584.80;;;23.38
70533;BMP180;58088;51.186;17.130;2023-06-22T03:10:55;100582.40;;;23.50
70533;BMP180;58088;51.186;17.130;2023-06-22T03:13:22;100587.20;;;23.42
70533;BMP180;58088;51.186;17.130;2023-06-22T03:15:48;100588.60;;;23.60
70533;BMP180;58088;51.186;17.130;2023-06-22T03:18:15;100586.80;;;23.82
70533;BMP180;58088;51.186;17.130;2023-06-22T03:20:41;100595.60;;;24.10
70533;BMP180;58088;51.186;17.130;2023-06-22T03:23:08;100602.80;;;24.30
70533;BMP180;58088;51.186;17.130;2023-06-22T03:25:35;100603.60;;;24.40
70533;BMP180;58088;51.186;17.130;2023-06-22T03:28:02;100608.60;;;24.60
70533;BMP180;58088;51.186;17.130;2023-06-22T03:30:28;100607.80;;;24.76
70533;BMP180;58088;51.186;17.130;2023-06-22T03:32:54;100614.40;;;24.90
70533;BMP180;58088;51.186;17.130;2023-06-22T03:35:20;100621.40;;;25.00
70533;BMP180;58088;51.186;17.130;2023-06-22T03:37:47;100620.80;;;25.20
70533;BMP180;58088;51.186;17.130;2023-06-22T03:40:14;100624.00;;;25.40
70533;BMP180;58088;51.186;17.130;2023-06-22T03:42:40;100631.40;;;25.70
70533;BMP180;58088;51.186;17.130;2023-06-22T03:45:07;100638.20;;;25.90
70533;BMP180;58088;51.186;17.130;2023-06-22T03:47:33;100640.80;;;26.00
70533;BMP180;58088;51.186;17.130;2023-06-22T03:50:00;100642.00;;;26.10
70533;BMP180;58088;51.186;17.130;2023-06-22T03:52:26;100644.20;;;26.20
70533;BMP180;58088;51.186;17.130;2023-06-22T03:54:52;100644.20;;;26.38
70533;BMP180;58088;51.186;17.130;2023-06-22T03:57:18;100647.40;;;26.50
70533;BMP180;58088;51.186;17.130;2023-06-22T03:59:44;100651.00;;;26.70
70533;BMP180;58088;51.186;17.130;2023-06-22T04:02:14;100650.80;;;26.80
70533;BMP180;58088;51.186;17.130;2023-06-22T04:04:40;100656.00;;;27.00
70533;BMP180;58088;51.186;17.130;2023-06-22T04:07:06;100660.80;;;27.20
70533;BMP180;58088;51.186;17.130;2023-06-22T04:09:33;100664.60;;;27.30
70533;BMP180;58088;51.186;17.130;2023-06-22T04:12:00;100664.00;;;27.46
70533;BMP180;58088;51.186;17.130;2023-06-22T04:14:26;100674.40;;;27.58
70533;BMP180;58088;51.186;17.130;2023-06-22T04:16:52;100672.40;;;27.60
70533;BMP180;58088;51.186;17.130;2023-06-22T04:19:18;100672.20;;;27.70
70533;BMP180;58088;51.186;17.130;2023-06-22T04:21:45;100669.00;;;27.90
70533;BMP180;58088;51.186;17.130;2023-06-22T04:24:11;100673.00;;;28.10
70533;BMP180;58088;51.186;17.130;2023-06-22T04:26:37;100676.20;;;28.40
70533;BMP180;58088;51.186;17.130;2023-06-22T04:29:04;100687.80;;;28.62
70533;BMP180;58088;51.186;17.130;2023-06-22T04:31:32;100681.00;;;28.90
70533;BMP180;58088;51.186;17.130;2023-06-22T04:34:05;100678.00;;;29.10
70533;BMP180;58088;51.186;17.130;2023-06-22T04:36:40;100674.60;;;29.46
70533;BMP180;58088;51.186;17.130;2023-06-22T04:39:12;100683.80;;;29.70
70533;BMP180;58088;51.186;17.130;2023-06-22T04:41:40;100687.20;;;29.80
70533;BMP180;58088;51.186;17.130;2023-06-22T04:44:17;100688.60;;;29.80
70533;BMP180;58088;51.186;17.130;2023-06-22T04:47:01;100681.40;;;29.90
70533;BMP180;58088;51.186;17.130;2023-06-22T04:49:30;100689.80;;;29.88
70533;BMP180;58088;51.186;17.130;2023-06-22T04:52:06;100691.40;;;29.90
70533;BMP180;58088;51.186;17.130;2023-06-22T04:54:35;100690.60;;;30.00
70533;BMP180;58088;51.186;17.130;2023-06-22T04:57:03;100698.60;;;30.10
70533;BMP180;58088;51.186;17.130;2023-06-22T04:59:31;100698.20;;;30.30
70533;BMP180;58088;51.186;17.130;2023-06-22T05:02:00;100692.80;;;30.60
70533;BMP180;58088;51.186;17.130;2023-06-22T05:04:27;100696.80;;;30.92
70533;BMP180;58088;51.186;17.130;2023-06-22T05:06:58;100700.80;;;31.20
70533;BMP180;58088;51.186;17.130;2023-06-22T05:09:24;100702.40;;;31.56
70533;BMP180;58088;51.186;17.130;2023-06-22T05:11:51;100702.40;;;31.80
70533;BMP180;58088;51.186;17.130;2023-06-22T05:14:18;100708.80;;;32.00
70533;BMP180;58088;51.186;17.130;2023-06-22T05:16:46;100708.40;;;32.04
70533;BMP180;58088;51.186;17.130;2023-06-22T05:19:12;100702.20;;;32.24
70533;BMP180;58088;51.186;17.130;2023-06-22T05:21:38;100699.80;;;32.40
70533;BMP180;58088;51.186;17.130;2023-06-22T05:24:05;100705.00;;;32.40
70533;BMP180;58088;51.186;17.130;2023-06-22T05:26:34;100708.00;;;32.50
70533;BMP180;58088;51.186;17.130;2023-06-22T05:29:02;100709.80;;;32.48
70533;BMP180;58088;51.186;17.130;2023-06-22T05:31:29;100696.60;;;32.42
70533;BMP180;58088;51.186;17.130;2023-06-22T05:33:56;100704.20;;;32.50
70533;BMP180;58088;51.186;17.130;2023-06-22T05:36:22;100710.20;;;32.60
70533;BMP180;58088;51.186;17.130;2023-06-22T05:38:52;100711.00;;;32.50
70533;BMP180;58088;51.186;17.130;2023-06-22T05:41:19;100714.60;;;32.30
70533;BMP180;58088;51.186;17.130;2023-06-22T05:43:45;100707.20;;;32.00
70533;BMP180;58088;51.186;17.130;2023-06-22T05:46:11;100714.40;;;31.80
70533;BMP180;58088;51.186;17.130;2023-06-22T05:48:37;100703.80;;;31.80
70533;BMP180;58088;51.186;17.130;2023-06-22T05:51:03;100702.60;;;31.90
70533;BMP180;58088;51.186;17.130;2023-06-22T05:53:29;100701.80;;;32.00
70533;BMP180;58088;51.186;17.130;2023-06-22T05:55:55;100699.00;;;32.00
70533;BMP180;58088;51.186;17.130;2023-06-22T05:58:22;100707.40;;;31.90
70533;BMP180;58088;51.186;17.130;2023-06-22T06:00:48;100711.60;;;32.00
70533;BMP180;58088;51.186;17.130;2023-06-22T06:03:14;100705.80;;;32.00
70533;BMP180;58088;51.186;17.130;2023-06-22T06:05:43;100707.00;;;32.00
70533;BMP180;58088;51.186;17.130;2023-06-22T06:08:09;100713.80;;;32.10
70533;BMP180;58088;51.186;17.130;2023-06-22T06:10:36;100712.60;;;32.06
70533;BMP180;58088;51.186;17.130;2023-06-22T06:13:03;100713.20;;;32.00
70533;BMP180;58088;51.186;17.130;2023-06-22T06:15:31;100717.60;;;32.10
70533;BMP180;58088;51.186;17.130;2023-06-22T06:17:58;100717.20;;;32.16
70533;BMP180;58088;51.186;17.130;2023-06-22T06:20:26;100718.00;;;32.30
70533;BMP180;58088;51.186;17.130;2023-06-22T06:22:53;100723.20;;;32.20
70533;BMP180;58088;51.186;17.130;2023-06-22T06:25:19;100722.20;;;32.40
70533;BMP180;58088;51.186;17.130;2023-06-22T06:27:50;100725.20;;;32.30
70533;BMP180;58088;51.186;17.130;2023-06-22T06:30:18;100730.20;;;32.20
70533;BMP180;58088;51.186;17.130;2023-06-22T06:32:45;100732.00;;;32.20
70533;BMP180;58088;51.186;17.130;2023-06-22T06:35:14;100735.40;;;32.10
70533;BMP180;58088;51.186;17.130;2023-06-22T06:37:44;100738.20;;;31.90
70533;BMP180;58088;51.186;17.130;2023-06-22T06:40:13;100744.80;;;31.70
70533;BMP180;58088;51.186;17.130;2023-06-22T06:42:44;100739.40;;;31.50
70533;BMP180;58088;51.186;17.130;2023-06-22T06:45:12;100741.20;;;31.08
70533;BMP180;58088;51.186;17.130;2023-06-22T06:47:39;100740.00;;;30.80
70533;BMP180;58088;51.186;17.130;2023-06-22T06:50:07;100739.20;;;30.90
70533;BMP180;58088;51.186;17.130;2023-06-22T06:52:33;100742.20;;;31.36
70533;BMP180;58088;51.186;17.130;2023-06-22T06:54:59;100747.60;;;31.70
70533;BMP180;58088;51.186;17.130;2023-06-22T06:57:26;100741.00;;;31.86
70533;BMP180;58088;51.186;17.130;2023-06-22T06:59:56;100735.60;;;32.10
70533;BMP180;58088;51.186;17.130;2023-06-22T07:02:23;100743.00;;;32.48
70533;BMP180;58088;51.186;17.130;2023-06-22T07:04:49;100754.20;;;32.72
70533;BMP180;58088;51.186;17.130;2023-06-22T07:07:17;100756.40;;;33.00
70533;BMP180;58088;51.186;17.130;2023-06-22T07:09:43;100758.60;;;33.10
70533;BMP180;58088;51.186;17.130;2023-06-22T07:12:09;100756.20;;;33.20
70533;BMP180;58088;51.186;17.130;2023-06-22T07:14:35;100758.00;;;33.40
70533;BMP180;58088;51.186;17.130;2023-06-22T07:17:01;100759.40;;;33.70
70533;BMP180;58088;51.186;17.130;2023-06-22T07:19:28;100756.80;;;33.82
70533;BMP180;58088;51.186;17.130;2023-06-22T07:21:55;100762.00;;;33.90
70533;BMP180;58088;51.186;17.130;2023-06-22T07:24:22;100774.40;;;34.04
70533;BMP180;58088;51.186;17.130;2023-06-22T07:26:49;100771.80;;;34.20
70533;BMP180;58088;51.186;17.130;2023-06-22T07:29:17;100770.20;;;34.36
70533;BMP180;58088;51.186;17.130;2023-06-22T07:31:44;100775.40;;;34.20
70533;BMP180;58088;51.186;17.130;2023-06-22T07:34:10;100775.80;;;34.10
70533;BMP180;58088;51.186;17.130;2023-06-22T07:36:37;100779.00;;;34.04
70533;BMP180;58088;51.186;17.130;2023-06-22T07:39:04;100776.40;;;33.90
70533;BMP180;58088;51.186;17.130;2023-06-22T07:41:31;100775.40;;;33.64
70533;BMP180;58088;51.186;17.130;2023-06-22T07:43:57;100777.20;;;33.52
70533;BMP180;58088;51.186;17.130;2023-06-22T07:46:23;100777.80;;;33.40
70533;BMP180;58088;51.186;17.130;2023-06-22T07:48:49;100774.60;;;33.40
70533;BMP180;58088;51.186;17.130;2023-06-22T07:51:15;100766.40;;;33.54
70533;BMP180;58088;51.186;17.130;2023-06-22T07:53:42;100765.20;;;33.68
70533;BMP180;58088;51.186;17.130;2023-06-22T07:56:13;100770.80;;;33.74
70533;BMP180;58088;51.186;17.130;2023-06-22T07:58:39;100773.60;;;33.80
70533;BMP180;58088;51.186;17.130;2023-06-22T08:01:06;100771.60;;;33.80
70533;BMP180;58088;51.186;17.130;2023-06-22T08:03:32;100769.00;;;33.80
70533;BMP180;58088;51.186;17.130;2023-06-22T08:05:58;100764.20;;;33.80
70533;BMP180;58088;51.186;17.130;2023-06-22T08:08:24;100755.60;;;33.60
70533;BMP180;58088;51.186;17.130;2023-06-22T08:10:50;100756.40;;;33.60
70533;BMP180;58088;51.186;17.130;2023-06-22T08:13:17;100758.80;;;33.60
70533;BMP180;58088;51.186;17.130;2023-06-22T08:15:43;100758.40;;;33.38
70533;BMP180;58088;51.186;17.130;2023-06-22T08:18:09;100760.20;;;33.20
70533;BMP180;58088;51.186;17.130;2023-06-22T08:20:36;100752.00;;;33.10
70533;BMP180;58088;51.186;17.130;2023-06-22T08:23:02;100751.60;;;33.20
70533;BMP180;58088;51.186;17.130;2023-06-22T08:25:35;100755.20;;;33.30
70533;BMP180;58088;51.186;17.130;2023-06-22T08:28:03;100753.00;;;33.38
70533;BMP180;58088;51.186;17.130;2023-06-22T08:30:30;100760.20;;;33.10
70533;BMP180;58088;51.186;17.130;2023-06-22T08:32:56;100752.80;;;33.14
70533;BMP180;58088;51.186;17.130;2023-06-22T08:35:23;100748.40;;;33.30
70533;BMP180;58088;51.186;17.130;2023-06-22T08:37:49;100745.60;;;33.40
70533;BMP180;58088;51.186;17.130;2023-06-22T08:40:19;100731.40;;;33.40
70533;BMP180;58088;51.186;17.130;2023-06-22T08:42:47;100726.00;;;33.40
70533;BMP180;58088;51.186;17.130;2023-06-22T08:45:14;100723.80;;;33.40
70533;BMP180;58088;51.186;17.130;2023-06-22T08:47:41;100719.40;;;33.54
70533;BMP180;58088;51.186;17.130;2023-06-22T08:50:10;100720.00;;;33.70
70533;BMP180;58088;51.186;17.130;2023-06-22T08:52:38;100717.20;;;33.80
70533;BMP180;58088;51.186;17.130;2023-06-22T08:55:08;100715.00;;;33.70
70533;BMP180;58088;51.186;17.130;2023-06-22T08:57:35;100708.40;;;33.60
70533;BMP180;58088;51.186;17.130;2023-06-22T09:00:09;100709.80;;;33.70
70533;BMP180;58088;51.186;17.130;2023-06-22T09:02:47;100721.20;;;33.70
70533;BMP180;58088;51.186;17.130;2023-06-22T09:05:14;100718.60;;;33.54
70533;BMP180;58088;51.186;17.130;2023-06-22T09:07:41;100724.20;;;33.66
70533;BMP180;58088;51.186;17.130;2023-06-22T09:10:08;100724.80;;;33.60
70533;BMP180;58088;51.186;17.130;2023-06-22T09:12:34;100728.20;;;33.30
70533;BMP180;58088;51.186;17.130;2023-06-22T09:15:03;100722.80;;;33.28
70533;BMP180;58088;51.186;17.130;2023-06-22T09:17:29;100721.00;;;33.30
70533;BMP180;58088;51.186;17.130;2023-06-22T09:19:55;100720.80;;;33.20
70533;BMP180;58088;51.186;17.130;2023-06-22T09:22:23;100718.40;;;33.30
70533;BMP180;58088;51.186;17.130;2023-06-22T09:24:50;100723.60;;;33.30
70533;BMP180;58088;51.186;17.130;2023-06-22T09:27:16;100727.80;;;33.34
70533;BMP180;58088;51.186;17.130;2023-06-22T09:29:42;100729.00;;;33.60
70533;BMP180;58088;51.186;17.130;2023-06-22T09:32:09;100723.60;;;33.60
70533;BMP180;58088;51.186;17.130;2023-06-22T09:34:35;100723.20;;;33.80
70533;BMP180;58088;51.186;17.130;2023-06-22T09:37:02;100720.40;;;33.90
70533;BMP180;58088;51.186;17.130;2023-06-22T09:39:28;100714.00;;;33.90
70533;BMP180;58088;51.186;17.130;2023-06-22T09:41:54;100716.40;;;33.72
70533;BMP180;58088;51.186;17.130;2023-06-22T09:44:20;100723.20;;;33.70
70533;BMP180;58088;51.186;17.130;2023-06-22T09:46:47;100719.40;;;33.80
70533;BMP180;58088;51.186;17.130;2023-06-22T09:49:13;100712.40;;;33.90
70533;BMP180;58088;51.186;17.130;2023-06-22T09:51:39;100712.20;;;33.90
70533;BMP180;58088;51.186;17.130;2023-06-22T09:54:05;100714.00;;;34.00
70533;BMP180;58088;51.186;17.130;2023-06-22T09:56:31;100714.20;;;34.00
70533;BMP180;58088;51.186;17.130;2023-06-22T09:58:57;100713.40;;;33.90
70533;BMP180;58088;51.186;17.130;2023-06-22T10:01:23;100713.80;;;34.00
70533;BMP180;58088;51.186;17.130;2023-06-22T10:03:52;100720.20;;;34.20
70533;BMP180;58088;51.186;17.130;2023-06-22T10:06:22;100721.00;;;34.20
70533;BMP180;58088;51.186;17.130;2023-06-22T10:08:52;100718.60;;;34.36
70533;BMP180;58088;51.186;17.130;2023-06-22T10:11:19;100714.00;;;34.40
70533;BMP180;58088;51.186;17.130;2023-06-22T10:13:45;100711.60;;;34.50
70533;BMP180;58088;51.186;17.130;2023-06-22T10:16:11;100715.60;;;34.40
70533;BMP180;58088;51.186;17.130;2023-06-22T10:18:37;100718.20;;;34.40
70533;BMP180;58088;51.186;17.130;2023-06-22T10:21:04;100706.40;;;34.30
70533;BMP180;58088;51.186;17.130;2023-06-22T10:23:30;100707.20;;;34.40
70533;BMP180;58088;51.186;17.130;2023-06-22T10:25:56;100701.80;;;34.40
70533;BMP180;58088;51.186;17.130;2023-06-22T10:28:24;100703.60;;;34.44
70533;BMP180;58088;51.186;17.130;2023-06-22T10:30:50;100697.40;;;34.54
70533;BMP180;58088;51.186;17.130;2023-06-22T10:33:16;100696.80;;;34.68
70533;BMP180;58088;51.186;17.130;2023-06-22T10:35:42;100683.40;;;34.70
70533;BMP180;58088;51.186;17.130;2023-06-22T10:38:08;100683.60;;;34.70
70533;BMP180;58088;51.186;17.130;2023-06-22T10:40:34;100671.40;;;34.60
70533;BMP180;58088;51.186;17.130;2023-06-22T10:43:00;100673.60;;;34.44
70533;BMP180;58088;51.186;17.130;2023-06-22T10:45:26;100669.60;;;34.30
70533;BMP180;58088;51.186;17.130;2023-06-22T10:47:55;100667.60;;;34.20
70533;BMP180;58088;51.186;17.130;2023-06-22T10:50:22;100667.60;;;34.20
70533;BMP180;58088;51.186;17.130;2023-06-22T10:52:49;100664.40;;;34.20
70533;BMP180;58088;51.186;17.130;2023-06-22T10:55:16;100663.00;;;34.22
70533;BMP180;58088;51.186;17.130;2023-06-22T10:57:42;100657.00;;;34.30
70533;BMP180;58088;51.186;17.130;2023-06-22T11:00:11;100659.00;;;34.40
70533;BMP180;58088;51.186;17.130;2023-06-22T11:02:37;100661.60;;;34.20
70533;BMP180;58088;51.186;17.130;2023-06-22T11:05:04;100653.60;;;34.30
70533;BMP180;58088;51.186;17.130;2023-06-22T11:07:31;100651.20;;;34.30
70533;BMP180;58088;51.186;17.130;2023-06-22T11:09:57;100647.80;;;34.30
70533;BMP180;58088;51.186;17.130;2023-06-22T11:12:23;100643.00;;;34.30
70533;BMP180;58088;51.186;17.130;2023-06-22T11:14:49;100643.80;;;34.40
70533;BMP180;58088;51.186;17.130;2023-06-22T11:17:18;100639.40;;;34.46
70533;BMP180;58088;51.186;17.130;2023-06-22T11:19:45;100648.00;;;34.50
70533;BMP180;58088;51.186;17.130;2023-06-22T11:22:11;100649.60;;;34.60
70533;BMP180;58088;51.186;17.130;2023-06-22T11:24:37;100650.00;;;34.30
70533;BMP180;58088;51.186;17.130;2023-06-22T11:27:03;100647.00;;;33.90
70533;BMP180;58088;51.186;17.130;2023-06-22T11:29:30;100648.80;;;33.62
70533;BMP180;58088;51.186;17.130;2023-06-22T11:31:57;100647.80;;;33.60
70533;BMP180;58088;51.186;17.130;2023-06-22T11:34:23;100643.60;;;33.50
70533;BMP180;58088;51.186;17.130;2023-06-22T11:36:49;100645.40;;;33.54
70533;BMP180;58088;51.186;17.130;2023-06-22T11:39:15;100641.20;;;33.32
70533;BMP180;58088;51.186;17.130;2023-06-22T11:41:41;100636.20;;;33.12
70533;BMP180;58088;51.186;17.130;2023-06-22T11:44:08;100635.00;;;33.30
70533;BMP180;58088;51.186;17.130;2023-06-22T11:46:34;100637.40;;;33.50
70533;BMP180;58088;51.186;17.130;2023-06-22T11:49:01;100638.60;;;33.68
70533;BMP180;58088;51.186;17.130;2023-06-22T11:51:28;100629.80;;;33.80
70533;BMP180;58088;51.186;17.130;2023-06-22T11:53:57;100628.40;;;33.90
70533;BMP180;58088;51.186;17.130;2023-06-22T11:56:23;100628.80;;;33.88
70533;BMP180;58088;51.186;17.130;2023-06-22T11:58:49;100627.60;;;33.80
70533;BMP180;58088;51.186;17.130;2023-06-22T12:01:15;100623.80;;;33.90
70533;BMP180;58088;51.186;17.130;2023-06-22T12:03:42;100622.20;;;33.90
70533;BMP180;58088;51.186;17.130;2023-06-22T12:06:09;100623.00;;;33.98
70533;BMP180;58088;51.186;17.130;2023-06-22T12:08:35;100625.40;;;33.98
70533;BMP180;58088;51.186;17.130;2023-06-22T12:11:01;100614.80;;;33.90
70533;BMP180;58088;51.186;17.130;2023-06-22T12:13:27;100615.60;;;33.80
70533;BMP180;58088;51.186;17.130;2023-06-22T12:15:54;100617.00;;;33.70
70533;BMP180;58088;51.186;17.130;2023-06-22T12:18:20;100608.00;;;33.70
70533;BMP180;58088;51.186;17.130;2023-06-22T12:20:47;100603.80;;;33.80
70533;BMP180;58088;51.186;17.130;2023-06-22T12:23:15;100600.20;;;33.80
70533;BMP180;58088;51.186;17.130;2023-06-22T12:25:41;100595.20;;;33.90
70533;BMP180;58088;51.186;17.130;2023-06-22T12:28:07;100590.60;;;34.00
70533;BMP180;58088;51.186;17.130;2023-06-22T12:30:33;100596.60;;;34.10
70533;BMP180;58088;51.186;17.130;2023-06-22T12:33:00;100597.00;;;34.10
70533;BMP180;58088;51.186;17.130;2023-06-22T12:35:26;100597.20;;;34.10
70533;BMP180;58088;51.186;17.130;2023-06-22T12:37:52;100593.80;;;34.00
70533;BMP180;58088;51.186;17.130;2023-06-22T12:40:19;100590.00;;;33.80
70533;BMP180;58088;51.186;17.130;2023-06-22T12:42:45;100588.40;;;33.58
70533;BMP180;58088;51.186;17.130;2023-06-22T12:45:11;100579.20;;;33.40
70533;BMP180;58088;51.186;17.130;2023-06-22T12:47:37;100578.60;;;33.40
70533;BMP180;58088;51.186;17.130;2023-06-22T12:50:05;100575.00;;;33.40
70533;BMP180;58088;51.186;17.130;2023-06-22T12:52:31;100575.20;;;33.40
70533;BMP180;58088;51.186;17.130;2023-06-22T12:54:58;100564.40;;;33.50
70533;BMP180;58088;51.186;17.130;2023-06-22T12:57:24;100565.40;;;33.50
70533;BMP180;58088;51.186;17.130;2023-06-22T12:59:51;100558.60;;;33.50
70533;BMP180;58088;51.186;17.130;2023-06-22T13:02:17;100558.60;;;33.54
70533;BMP180;58088;51.186;17.130;2023-06-22T13:04:43;100554.20;;;33.50
70533;BMP180;58088;51.186;17.130;2023-06-22T13:07:10;100552.60;;;33.60
70533;BMP180;58088;51.186;17.130;2023-06-22T13:09:36;100565.40;;;33.60
70533;BMP180;58088;51.186;17.130;2023-06-22T13:12:03;100563.20;;;33.50
70533;BMP180;58088;51.186;17.130;2023-06-22T13:14:30;100559.00;;;33.64
70533;BMP180;58088;51.186;17.130;2023-06-22T13:16:59;100554.00;;;33.70
70533;BMP180;58088;51.186;17.130;2023-06-22T13:19:25;100553.40;;;33.70
70533;BMP180;58088;51.186;17.130;2023-06-22T13:21:54;100551.20;;;33.70
70533;BMP180;58088;51.186;17.130;2023-06-22T13:24:20;100552.80;;;33.80
70533;BMP180;58088;51.186;17.130;2023-06-22T13:26:46;100552.60;;;33.80
70533;BMP180;58088;51.186;17.130;2023-06-22T13:29:13;100546.60;;;33.70
70533;BMP180;58088;51.186;17.130;2023-06-22T13:31:39;100546.00;;;33.70
70533;BMP180;58088;51.186;17.130;2023-06-22T13:34:05;100544.20;;;33.64
70533;BMP180;58088;51.186;17.130;2023-06-22T13:36:31;100544.80;;;33.70
70533;BMP180;58088;51.186;17.130;2023-06-22T13:38:57;100538.00;;;33.70
70533;BMP180;58088;51.186;17.130;2023-06-22T13:41:24;100537.20;;;33.60
70533;BMP180;58088;51.186;17.130;2023-06-22T13:43:50;100540.60;;;33.60
70533;BMP180;58088;51.186;17.130;2023-06-22T13:46:16;100535.60;;;33.50
70533;BMP180;58088;51.186;17.130;2023-06-22T13:48:42;100536.00;;;33.50
70533;BMP180;58088;51.186;17.130;2023-06-22T13:51:08;100535.00;;;33.40